sensor_id;sensor_type;location;lat;lon;timestamp;P1;durP1;ratioP1;P2;durP2;ratioP2
31596;SDS011;18201;50.978;7.034;2023-03-01T01:16:48;16.65;;;10.75;;
31596;SDS011;18201;50.978;7.034;2023-03-01T01:17:21;17.15;;;12.48;;
31596;SDS011;18201;50.978;7.034;2023-03-01T01:17:51;15.82;;;11.70;;
31596;SDS011;18201;50.978;7.034;2023-03-01T01:18:23;17.17;;;12.95;;
31596;SDS011;18201;50.978;7.034;2023-03-01T01:18:54;16.77;;;13.18;;
31596;SDS011;18201;50.978;7.034;2023-03-01T01:19:26;17.98;;;13.30;;
31596;SDS011;18201;50.978;7.034;2023-03-01T01:19:57;15.15;;;11.98;;
31596;SDS011;18201;50.978;7.034;2023-03-01T01:20:28;17.13;;;11.15;;
31596;SDS011;18201;50.978;7.034;2023-03-01T01:21:02;16.60;;;12.02;;
31596;SDS011;18201;50.978;7.034;2023-03-01T01:21:35;16.92;;;11.95;;
31596;SDS011;18201;50.978;7.034;2023-03-01T01:22:06;15.48;;;12.20;;
31596;SDS011;18201;50.978;7.034;2023-03-01T01:22:38;15.43;;;11.55;;
31596;SDS011;18201;50.978;7.034;2023-03-01T01:23:09;18.35;;;12.68;;
31596;SDS011;18201;50.978;7.034;2023-03-01T01:23:40;15.23;;;11.77;;
31596;SDS011;18201;50.978;7.034;2023-03-01T01:24:12;16.40;;;12.48;;
31596;SDS011;18201;50.978;7.034;2023-03-01T01:24:43;16.90;;;13.05;;
31596;SDS011;18201;50.978;7.034;2023-03-01T01:25:14;24.02;;;15.63;;
31596;SDS011;18201;50.978;7.034;2023-03-01T01:25:46;23.83;;;14.35;;
31596;SDS011;18201;50.978;7.034;2023-03-01T01:26:18;26.88;;;15.65;;
31596;SDS011;18201;50.978;7.034;2023-03-01T01:26:50;23.63;;;14.90;;
31596;SDS011;18201;50.978;7.034;2023-03-01T01:27:21;26.73;;;15.00;;
31596;SDS011;18201;50.978;7.034;2023-03-01T01:27:53;25.23;;;14.98;;
31596;SDS011;18201;50.978;7.034;2023-03-01T01:28:24;24.08;;;13.60;;
31596;SDS011;18201;50.978;7.034;2023-03-01T01:28:55;23.13;;;13.73;;
31596;SDS011;18201;50.978;7.034;2023-03-01T01:29:27;21.05;;;13.25;;
31596;SDS011;18201;50.978;7.034;2023-03-01T01:29:58;21.08;;;13.85;;
31596;SDS011;18201;50.978;7.034;2023-03-01T01:30:29;16.40;;;12.85;;
31596;SDS011;18201;50.978;7.034;2023-03-01T01:31:01;16.23;;;11.80;;
31596;SDS011;18201;50.978;7.034;2023-03-01T01:31:32;17.70;;;13.25;;
31596;SDS011;18201;50.978;7.034;2023-03-01T01:32:05;15.95;;;12.30;;
31596;SDS011;18201;50.978;7.034;2023-03-01T01:32:37;16.45;;;11.70;;
31596;SDS011;18201;50.978;7.034;2023-03-01T01:33:08;17.17;;;12.20;;
31596;SDS011;18201;50.978;7.034;2023-03-01T01:33:39;15.35;;;13.05;;
31596;SDS011;18201;50.978;7.034;2023-03-01T01:34:13;16.25;;;12.50;;
31596;SDS011;18201;50.978;7.034;2023-03-01T01:34:46;13.32;;;11.40;;
31596;SDS011;18201;50.978;7.034;2023-03-01T01:35:17;15.98;;;12.57;;
31596;SDS011;18201;50.978;7.034;2023-03-01T01:35:49;15.48;;;12.20;;
31596;SDS011;18201;50.978;7.034;2023-03-01T01:36:20;15.10;;;11.80;;
31596;SDS011;18201;50.978;7.034;2023-03-01T01:36:52;14.30;;;11.20;;
31596;SDS011;18201;50.978;7.034;2023-03-01T01:37:24;16.10;;;11.70;;
31596;SDS011;18201;50.978;7.034;2023-03-01T01:38:03;16.73;;;11.98;;
31596;SDS011;18201;50.978;7.034;2023-03-01T01:38:34;17.83;;;12.88;;
31596;SDS011;18201;50.978;7.034;2023-03-01T01:39:06;15.32;;;11.93;;
31596;SDS011;18201;50.978;7.034;2023-03-01T01:39:37;17.02;;;12.52;;
31596;SDS011;18201;50.978;7.034;2023-03-01T01:40:09;14.60;;;11.80;;
31596;SDS011;18201;50.978;7.034;2023-03-01T01:40:45;21.45;;;12.32;;
31596;SDS011;18201;50.978;7.034;2023-03-01T01:41:16;16.90;;;12.63;;
31596;SDS011;18201;50.978;7.034;2023-03-01T01:41:48;21.48;;;13.98;;
31596;SDS011;18201;50.978;7.034;2023-03-01T01:42:20;16.50;;;11.88;;
31596;SDS011;18201;50.978;7.034;2023-03-01T01:42:51;13.55;;;11.88;;
31596;SDS011;18201;50.978;7.034;2023-03-01T01:43:22;16.02;;;12.10;;
31596;SDS011;18201;50.978;7.034;2023-03-01T01:44:11;16.90;;;12.45;;
31596;SDS011;18201;50.978;7.034;2023-03-01T01:44:47;16.60;;;12.48;;
31596;SDS011;18201;50.978;7.034;2023-03-01T01:45:26;17.52;;;12.15;;
31596;SDS011;18201;50.978;7.034;2023-03-01T01:46:02;18.48;;;12.80;;
31596;SDS011;18201;50.978;7.034;2023-03-01T01:46:37;13.88;;;11.68;;
31596;SDS011;18201;50.978;7.034;2023-03-01T01:47:12;17.08;;;12.10;;
31596;SDS011;18201;50.978;7.034;2023-03-01T01:47:46;18.00;;;12.07;;
31596;SDS011;18201;50.978;7.034;2023-03-01T01:48:19;14.98;;;11.82;;
31596;SDS011;18201;50.978;7.034;2023-03-01T01:48:53;15.80;;;11.90;;
31596;SDS011;18201;50.978;7.034;2023-03-01T01:49:29;15.55;;;12.20;;
31596;SDS011;18201;50.978;7.034;2023-03-01T01:50:03;17.15;;;11.95;;
31596;SDS011;18201;50.978;7.034;2023-03-01T01:50:35;18.42;;;13.60;;
31596;SDS011;18201;50.978;7.034;2023-03-01T01:51:11;15.50;;;12.43;;
31596;SDS011;18201;50.978;7.034;2023-03-01T01:51:44;15.93;;;12.70;;
31596;SDS011;18201;50.978;7.034;2023-03-01T01:52:20;14.38;;;11.82;;
31596;SDS011;18201;50.978;7.034;2023-03-01T01:52:54;17.98;;;12.25;;
31596;SDS011;18201;50.978;7.034;2023-03-01T01:53:25;14.82;;;12.57;;
31596;SDS011;18201;50.978;7.034;2023-03-01T01:53:59;12.23;;;10.32;;
31596;SDS011;18201;50.978;7.034;2023-03-01T01:54:32;16.75;;;11.35;;
31596;SDS011;18201;50.978;7.034;2023-03-01T01:55:10;14.80;;;11.68;;
31596;SDS011;18201;50.978;7.034;2023-03-01T01:55:47;14.23;;;12.07;;
31596;SDS011;18201;50.978;7.034;2023-03-01T01:56:22;14.88;;;12.02;;
31596;SDS011;18201;50.978;7.034;2023-03-01T01:56:57;17.63;;;12.80;;
31596;SDS011;18201;50.978;7.034;2023-03-01T01:57:34;17.58;;;11.85;;
31596;SDS011;18201;50.978;7.034;2023-03-01T01:58:08;19.98;;;11.98;;
31596;SDS011;18201;50.978;7.034;2023-03-01T01:58:41;16.10;;;11.95;;
31596;SDS011;18201;50.978;7.034;2023-03-01T01:59:14;13.95;;;11.73;;
31596;SDS011;18201;50.978;7.034;2023-03-01T01:59:47;18.73;;;13.00;;
31596;SDS011;18201;50.978;7.034;2023-03-01T02:00:21;20.33;;;14.07;;
31596;SDS011;18201;50.978;7.034;2023-03-01T02:00:53;17.08;;;13.32;;
31596;SDS011;18201;50.978;7.034;2023-03-01T02:01:25;16.98;;;13.05;;
31596;SDS011;18201;50.978;7.034;2023-03-01T02:01:56;16.10;;;12.82;;
31596;SDS011;18201;50.978;7.034;2023-03-01T02:02:31;15.77;;;13.30;;
31596;SDS011;18201;50.978;7.034;2023-03-01T02:03:04;18.08;;;13.80;;
31596;SDS011;18201;50.978;7.034;2023-03-01T02:03:38;16.42;;;12.82;;
31596;SDS011;18201;50.978;7.034;2023-03-01T02:04:13;15.98;;;13.05;;
31596;SDS011;18201;50.978;7.034;2023-03-01T02:04:44;16.48;;;12.55;;
31596;SDS011;18201;50.978;7.034;2023-03-01T02:05:19;14.10;;;11.55;;
31596;SDS011;18201;50.978;7.034;2023-03-01T02:05:57;18.73;;;12.98;;
31596;SDS011;18201;50.978;7.034;2023-03-01T02:06:32;16.98;;;12.75;;
31596;SDS011;18201;50.978;7.034;2023-03-01T02:07:09;15.82;;;11.65;;
31596;SDS011;18201;50.978;7.034;2023-03-01T02:07:44;16.30;;;12.25;;
31596;SDS011;18201;50.978;7.034;2023-03-01T02:08:17;15.98;;;13.15;;
31596;SDS011;18201;50.978;7.034;2023-03-01T02:08:50;16.27;;;13.07;;
31596;SDS011;18201;50.978;7.034;2023-03-01T02:09:22;19.13;;;14.00;;
31596;SDS011;18201;50.978;7.034;2023-03-01T02:09:55;15.93;;;12.35;;
31596;SDS011;18201;50.978;7.034;2023-03-01T02:10:27;14.98;;;12.15;;
31596;SDS011;18201;50.978;7.034;2023-03-01T02:10:59;15.80;;;13.07;;
31596;SDS011;18201;50.978;7.034;2023-03-01T02:11:34;18.10;;;12.63;;
31596;SDS011;18201;50.978;7.034;2023-03-01T02:12:07;16.98;;;11.93;;
31596;SDS011;18201;50.978;7.034;2023-03-01T02:12:38;16.35;;;12.75;;
31596;SDS011;18201;50.978;7.034;2023-03-01T02:13:11;14.43;;;11.77;;
31596;SDS011;18201;50.978;7.034;2023-03-01T02:13:42;14.88;;;11.43;;
31596;SDS011;18201;50.978;7.034;2023-03-01T02:14:14;13.57;;;11.95;;
31596;SDS011;18201;50.978;7.034;2023-03-01T02:14:46;19.15;;;13.32;;
31596;SDS011;18201;50.978;7.034;2023-03-01T02:15:17;13.75;;;11.30;;
31596;SDS011;18201;50.978;7.034;2023-03-01T02:15:48;14.60;;;11.93;;
31596;SDS011;18201;50.978;7.034;2023-03-01T02:16:19;17.75;;;13.25;;
31596;SDS011;18201;50.978;7.034;2023-03-01T02:16:51;15.93;;;12.15;;
31596;SDS011;18201;50.978;7.034;2023-03-01T02:17:22;14.60;;;12.13;;
31596;SDS011;18201;50.978;7.034;2023-03-01T02:17:55;16.58;;;13.10;;
31596;SDS011;18201;50.978;7.034;2023-03-01T02:18:27;16.65;;;13.07;;
31596;SDS011;18201;50.978;7.034;2023-03-01T02:18:59;15.82;;;12.45;;
31596;SDS011;18201;50.978;7.034;2023-03-01T02:19:33;16.00;;;12.98;;
31596;SDS011;18201;50.978;7.034;2023-03-01T02:20:14;16.98;;;12.27;;
31596;SDS011;18201;50.978;7.034;2023-03-01T02:21:00;16.15;;;12.85;;
31596;SDS011;18201;50.978;7.034;2023-03-01T02:21:41;18.85;;;12.30;;
31596;SDS011;18201;50.978;7.034;2023-03-01T02:22:20;13.98;;;12.43;;
31596;SDS011;18201;50.978;7.034;2023-03-01T02:22:54;15.20;;;12.57;;
31596;SDS011;18201;50.978;7.034;2023-03-01T02:23:25;22.02;;;12.98;;
31596;SDS011;18201;50.978;7.034;2023-03-01T02:23:58;18.13;;;13.25;;
31596;SDS011;18201;50.978;7.034;2023-03-01T02:24:37;13.35;;;11.95;;
31596;SDS011;18201;50.978;7.034;2023-03-01T02:25:23;15.25;;;11.68;;
31596;SDS011;18201;50.978;7.034;2023-03-01T02:25:59;19.05;;;13.48;;
31596;SDS011;18201;50.978;7.034;2023-03-01T02:26:36;17.17;;;13.07;;
31596;SDS011;18201;50.978;7.034;2023-03-01T02:27:12;18.05;;;12.55;;
31596;SDS011;18201;50.978;7.034;2023-03-01T02:27:46;16.95;;;13.80;;
31596;SDS011;18201;50.978;7.034;2023-03-01T02:28:25;16.60;;;12.40;;
31596;SDS011;18201;50.978;7.034;2023-03-01T02:28:59;15.02;;;13.20;;
31596;SDS011;18201;50.978;7.034;2023-03-01T02:29:31;16.27;;;12.63;;
31596;SDS011;18201;50.978;7.034;2023-03-01T02:30:02;17.35;;;12.13;;
31596;SDS011;18201;50.978;7.034;2023-03-01T02:30:34;14.85;;;11.40;;
31596;SDS011;18201;50.978;7.034;2023-03-01T02:31:38;14.63;;;12.93;;
31596;SDS011;18201;50.978;7.034;2023-03-01T02:32:11;19.10;;;13.40;;
31596;SDS011;18201;50.978;7.034;2023-03-01T02:32:45;17.02;;;13.15;;
31596;SDS011;18201;50.978;7.034;2023-03-01T02:33:17;18.60;;;13.05;;
31596;SDS011;18201;50.978;7.034;2023-03-01T02:33:48;15.60;;;12.45;;
31596;SDS011;18201;50.978;7.034;2023-03-01T02:34:20;16.08;;;13.18;;
31596;SDS011;18201;50.978;7.034;2023-03-01T02:34:55;17.08;;;13.27;;
31596;SDS011;18201;50.978;7.034;2023-03-01T02:35:27;17.55;;;12.43;;
31596;SDS011;18201;50.978;7.034;2023-03-01T02:35:59;16.45;;;13.10;;
31596;SDS011;18201;50.978;7.034;2023-03-01T02:36:32;14.63;;;12.35;;
31596;SDS011;18201;50.978;7.034;2023-03-01T02:37:07;15.85;;;12.55;;
31596;SDS011;18201;50.978;7.034;2023-03-01T02:37:42;14.68;;;12.32;;
31596;SDS011;18201;50.978;7.034;2023-03-01T02:38:14;14.52;;;11.73;;
31596;SDS011;18201;50.978;7.034;2023-03-01T02:38:46;17.50;;;13.55;;
31596;SDS011;18201;50.978;7.034;2023-03-01T02:39:18;15.43;;;12.35;;
31596;SDS011;18201;50.978;7.034;2023-03-01T02:39:55;17.58;;;13.57;;
31596;SDS011;18201;50.978;7.034;2023-03-01T02:40:29;17.05;;;13.80;;
31596;SDS011;18201;50.978;7.034;2023-03-01T02:41:01;20.77;;;13.63;;
31596;SDS011;18201;50.978;7.034;2023-03-01T02:41:41;18.85;;;14.05;;
31596;SDS011;18201;50.978;7.034;2023-03-01T02:42:20;21.65;;;14.57;;
31596;SDS011;18201;50.978;7.034;2023-03-01T02:42:54;22.13;;;14.73;;
31596;SDS011;18201;50.978;7.034;2023-03-01T02:43:30;23.27;;;14.63;;
31596;SDS011;18201;50.978;7.034;2023-03-01T02:44:02;25.73;;;15.77;;
31596;SDS011;18201;50.978;7.034;2023-03-01T02:44:34;24.45;;;15.30;;
31596;SDS011;18201;50.978;7.034;2023-03-01T02:45:05;22.38;;;15.48;;
31596;SDS011;18201;50.978;7.034;2023-03-01T02:45:37;25.27;;;17.10;;
31596;SDS011;18201;50.978;7.034;2023-03-01T02:46:14;24.77;;;15.85;;
31596;SDS011;18201;50.978;7.034;2023-03-01T02:46:47;20.60;;;14.38;;
31596;SDS011;18201;50.978;7.034;2023-03-01T02:47:20;22.98;;;15.38;;
31596;SDS011;18201;50.978;7.034;2023-03-01T02:47:53;24.08;;;15.63;;
31596;SDS011;18201;50.978;7.034;2023-03-01T02:48:27;20.48;;;15.13;;
31596;SDS011;18201;50.978;7.034;2023-03-01T02:48:58;22.15;;;15.00;;
31596;SDS011;18201;50.978;7.034;2023-03-01T02:49:30;20.02;;;15.52;;
31596;SDS011;18201;50.978;7.034;2023-03-01T02:50:09;19.92;;;14.25;;
31596;SDS011;18201;50.978;7.034;2023-03-01T02:50:58;22.05;;;14.57;;
31596;SDS011;18201;50.978;7.034;2023-03-01T02:51:42;22.25;;;14.07;;
31596;SDS011;18201;50.978;7.034;2023-03-01T02:53:14;27.35;;;15.40;;
31596;SDS011;18201;50.978;7.034;2023-03-01T02:53:55;22.13;;;16.05;;
31596;SDS011;18201;50.978;7.034;2023-03-01T02:54:35;21.38;;;14.95;;
31596;SDS011;18201;50.978;7.034;2023-03-01T02:55:11;23.02;;;16.30;;
31596;SDS011;18201;50.978;7.034;2023-03-01T02:55:45;20.92;;;15.38;;
31596;SDS011;18201;50.978;7.034;2023-03-01T02:56:16;20.52;;;15.25;;
31596;SDS011;18201;50.978;7.034;2023-03-01T02:56:47;21.42;;;16.20;;
31596;SDS011;18201;50.978;7.034;2023-03-01T02:57:18;21.45;;;15.38;;
31596;SDS011;18201;50.978;7.034;2023-03-01T02:57:52;19.85;;;14.93;;
31596;SDS011;18201;50.978;7.034;2023-03-01T02:58:23;24.80;;;16.17;;
31596;SDS011;18201;50.978;7.034;2023-03-01T02:58:56;21.50;;;15.45;;
31596;SDS011;18201;50.978;7.034;2023-03-01T02:59:31;20.02;;;15.07;;
31596;SDS011;18201;50.978;7.034;2023-03-01T03:00:09;21.27;;;15.10;;
31596;SDS011;18201;50.978;7.034;2023-03-01T03:00:49;18.63;;;14.35;;
31596;SDS011;18201;50.978;7.034;2023-03-01T03:01:21;23.55;;;15.18;;
31596;SDS011;18201;50.978;7.034;2023-03-01T03:01:52;19.45;;;13.93;;
31596;SDS011;18201;50.978;7.034;2023-03-01T03:02:23;21.33;;;14.77;;
31596;SDS011;18201;50.978;7.034;2023-03-01T03:03:06;20.38;;;14.15;;
31596;SDS011;18201;50.978;7.034;2023-03-01T03:03:37;17.92;;;13.50;;
31596;SDS011;18201;50.978;7.034;2023-03-01T03:04:09;19.92;;;14.77;;
31596;SDS011;18201;50.978;7.034;2023-03-01T03:04:46;19.90;;;14.43;;
31596;SDS011;18201;50.978;7.034;2023-03-01T03:05:18;22.63;;;15.00;;
31596;SDS011;18201;50.978;7.034;2023-03-01T03:05:51;22.08;;;14.73;;
31596;SDS011;18201;50.978;7.034;2023-03-01T03:06:22;18.58;;;15.18;;
31596;SDS011;18201;50.978;7.034;2023-03-01T03:06:53;17.42;;;14.07;;
31596;SDS011;18201;50.978;7.034;2023-03-01T03:07:24;22.23;;;14.68;;
31596;SDS011;18201;50.978;7.034;2023-03-01T03:07:55;19.75;;;13.70;;
31596;SDS011;18201;50.978;7.034;2023-03-01T03:08:27;18.85;;;13.55;;
31596;SDS011;18201;50.978;7.034;2023-03-01T03:08:58;19.30;;;14.38;;
31596;SDS011;18201;50.978;7.034;2023-03-01T03:09:29;19.88;;;13.10;;
31596;SDS011;18201;50.978;7.034;2023-03-01T03:10:02;21.02;;;15.27;;
31596;SDS011;18201;50.978;7.034;2023-03-01T03:10:35;17.90;;;13.85;;
31596;SDS011;18201;50.978;7.034;2023-03-01T03:11:08;18.55;;;14.70;;
31596;SDS011;18201;50.978;7.034;2023-03-01T03:11:40;20.38;;;13.98;;
31596;SDS011;18201;50.978;7.034;2023-03-01T03:12:12;21.02;;;15.20;;
31596;SDS011;18201;50.978;7.034;2023-03-01T03:12:43;19.35;;;13.93;;
31596;SDS011;18201;50.978;7.034;2023-03-01T03:13:15;20.95;;;14.40;;
31596;SDS011;18201;50.978;7.034;2023-03-01T03:13:46;20.58;;;15.00;;
31596;SDS011;18201;50.978;7.034;2023-03-01T03:14:19;19.05;;;13.40;;
31596;SDS011;18201;50.978;7.034;2023-03-01T03:14:51;21.27;;;13.77;;
31596;SDS011;18201;50.978;7.034;2023-03-01T03:15:22;21.48;;;14.88;;
31596;SDS011;18201;50.978;7.034;2023-03-01T03:15:54;16.17;;;14.23;;
31596;SDS011;18201;50.978;7.034;2023-03-01T03:16:26;19.13;;;13.93;;
31596;SDS011;18201;50.978;7.034;2023-03-01T03:16:59;19.40;;;13.85;;
31596;SDS011;18201;50.978;7.034;2023-03-01T03:17:30;20.42;;;13.63;;
31596;SDS011;18201;50.978;7.034;2023-03-01T03:18:04;18.27;;;13.68;;
31596;SDS011;18201;50.978;7.034;2023-03-01T03:18:37;17.50;;;13.88;;
31596;SDS011;18201;50.978;7.034;2023-03-01T03:19:08;19.02;;;14.45;;
31596;SDS011;18201;50.978;7.034;2023-03-01T03:19:40;19.58;;;14.20;;
31596;SDS011;18201;50.978;7.034;2023-03-01T03:20:15;20.23;;;14.77;;
31596;SDS011;18201;50.978;7.034;2023-03-01T03:20:50;17.48;;;13.48;;
31596;SDS011;18201;50.978;7.034;2023-03-01T03:21:23;18.17;;;13.82;;
31596;SDS011;18201;50.978;7.034;2023-03-01T03:21:54;19.58;;;14.27;;
31596;SDS011;18201;50.978;7.034;2023-03-01T03:22:25;20.05;;;14.65;;
31596;SDS011;18201;50.978;7.034;2023-03-01T03:22:58;16.80;;;13.63;;
31596;SDS011;18201;50.978;7.034;2023-03-01T03:23:29;17.52;;;14.13;;
31596;SDS011;18201;50.978;7.034;2023-03-01T03:24:01;18.08;;;14.77;;
31596;SDS011;18201;50.978;7.034;2023-03-01T03:24:32;20.05;;;13.68;;
31596;SDS011;18201;50.978;7.034;2023-03-01T03:25:08;23.15;;;13.48;;
31596;SDS011;18201;50.978;7.034;2023-03-01T03:25:40;22.30;;;14.80;;
31596;SDS011;18201;50.978;7.034;2023-03-01T03:26:11;17.30;;;14.18;;
31596;SDS011;18201;50.978;7.034;2023-03-01T03:26:45;21.00;;;14.65;;
31596;SDS011;18201;50.978;7.034;2023-03-01T03:27:16;19.15;;;14.80;;
31596;SDS011;18201;50.978;7.034;2023-03-01T03:27:47;16.73;;;13.70;;
31596;SDS011;18201;50.978;7.034;2023-03-01T03:28:26;16.30;;;13.23;;
31596;SDS011;18201;50.978;7.034;2023-03-01T03:28:57;17.45;;;14.13;;
31596;SDS011;18201;50.978;7.034;2023-03-01T03:29:29;20.77;;;15.02;;
31596;SDS011;18201;50.978;7.034;2023-03-01T03:30:01;17.60;;;13.48;;
31596;SDS011;18201;50.978;7.034;2023-03-01T03:30:32;16.80;;;13.70;;
31596;SDS011;18201;50.978;7.034;2023-03-01T03:31:03;20.55;;;13.90;;
31596;SDS011;18201;50.978;7.034;2023-03-01T03:31:37;18.85;;;14.05;;
31596;SDS011;18201;50.978;7.034;2023-03-01T03:32:08;22.55;;;15.32;;
31596;SDS011;18201;50.978;7.034;2023-03-01T03:32:39;15.80;;;13.18;;
31596;SDS011;18201;50.978;7.034;2023-03-01T03:33:10;19.88;;;14.50;;
31596;SDS011;18201;50.978;7.034;2023-03-01T03:33:44;17.13;;;13.05;;
31596;SDS011;18201;50.978;7.034;2023-03-01T03:34:14;21.25;;;14.23;;
31596;SDS011;18201;50.978;7.034;2023-03-01T03:34:47;18.08;;;14.30;;
31596;SDS011;18201;50.978;7.034;2023-03-01T03:35:21;15.23;;;13.23;;
31596;SDS011;18201;50.978;7.034;2023-03-01T03:35:54;18.40;;;14.65;;
31596;SDS011;18201;50.978;7.034;2023-03-01T03:36:25;18.10;;;13.40;;
31596;SDS011;18201;50.978;7.034;2023-03-01T03:36:57;22.77;;;14.30;;
31596;SDS011;18201;50.978;7.034;2023-03-01T03:37:29;19.23;;;13.60;;
31596;SDS011;18201;50.978;7.034;2023-03-01T03:38:19;21.48;;;13.70;;
31596;SDS011;18201;50.978;7.034;2023-03-01T03:38:52;15.75;;;12.98;;
31596;SDS011;18201;50.978;7.034;2023-03-01T03:39:23;18.20;;;14.40;;
31596;SDS011;18201;50.978;7.034;2023-03-01T03:39:54;14.57;;;12.57;;
31596;SDS011;18201;50.978;7.034;2023-03-01T03:40:25;19.20;;;14.23;;
31596;SDS011;18201;50.978;7.034;2023-03-01T03:41:01;17.55;;;14.50;;
31596;SDS011;18201;50.978;7.034;2023-03-01T03:41:34;19.63;;;14.82;;
31596;SDS011;18201;50.978;7.034;2023-03-01T03:42:05;19.30;;;14.63;;
31596;SDS011;18201;50.978;7.034;2023-03-01T03:42:36;20.90;;;13.85;;
31596;SDS011;18201;50.978;7.034;2023-03-01T03:43:07;15.55;;;13.80;;
31596;SDS011;18201;50.978;7.034;2023-03-01T03:43:40;20.75;;;15.50;;
31596;SDS011;18201;50.978;7.034;2023-03-01T03:44:13;18.38;;;13.90;;
31596;SDS011;18201;50.978;7.034;2023-03-01T03:44:45;18.00;;;14.15;;
31596;SDS011;18201;50.978;7.034;2023-03-01T03:45:17;16.30;;;13.80;;
31596;SDS011;18201;50.978;7.034;2023-03-01T03:45:49;15.18;;;13.48;;
31596;SDS011;18201;50.978;7.034;2023-03-01T03:46:21;16.55;;;13.95;;
31596;SDS011;18201;50.978;7.034;2023-03-01T03:46:52;18.60;;;14.35;;
31596;SDS011;18201;50.978;7.034;2023-03-01T03:47:23;17.92;;;14.27;;
31596;SDS011;18201;50.978;7.034;2023-03-01T03:47:54;19.50;;;14.07;;
31596;SDS011;18201;50.978;7.034;2023-03-01T03:48:25;19.15;;;14.13;;
31596;SDS011;18201;50.978;7.034;2023-03-01T03:48:58;18.73;;;14.70;;
31596;SDS011;18201;50.978;7.034;2023-03-01T03:49:28;16.85;;;14.20;;
31596;SDS011;18201;50.978;7.034;2023-03-01T03:49:59;20.20;;;14.45;;
31596;SDS011;18201;50.978;7.034;2023-03-01T03:50:30;20.95;;;14.75;;
31596;SDS011;18201;50.978;7.034;2023-03-01T03:51:02;19.85;;;14.40;;
31596;SDS011;18201;50.978;7.034;2023-03-01T03:51:35;17.23;;;14.48;;
31596;SDS011;18201;50.978;7.034;2023-03-01T03:52:06;18.88;;;13.63;;
31596;SDS011;18201;50.978;7.034;2023-03-01T03:52:43;20.90;;;15.35;;
31596;SDS011;18201;50.978;7.034;2023-03-01T03:53:14;21.67;;;15.45;;
31596;SDS011;18201;50.978;7.034;2023-03-01T03:53:45;18.95;;;14.93;;
31596;SDS011;18201;50.978;7.034;2023-03-01T03:54:17;21.85;;;15.10;;
31596;SDS011;18201;50.978;7.034;2023-03-01T03:54:47;21.42;;;14.25;;
31596;SDS011;18201;50.978;7.034;2023-03-01T03:55:18;20.48;;;15.00;;
31596;SDS011;18201;50.978;7.034;2023-03-01T03:55:49;18.27;;;14.85;;
31596;SDS011;18201;50.978;7.034;2023-03-01T03:56:21;21.15;;;15.48;;
31596;SDS011;18201;50.978;7.034;2023-03-01T03:56:55;22.35;;;15.40;;
31596;SDS011;18201;50.978;7.034;2023-03-01T03:57:26;19.25;;;13.52;;
31596;SDS011;18201;50.978;7.034;2023-03-01T03:57:58;17.77;;;15.10;;
31596;SDS011;18201;50.978;7.034;2023-03-01T03:58:32;17.92;;;14.32;;
31596;SDS011;18201;50.978;7.034;2023-03-01T03:59:03;16.17;;;13.95;;
31596;SDS011;18201;50.978;7.034;2023-03-01T03:59:35;20.42;;;15.02;;
31596;SDS011;18201;50.978;7.034;2023-03-01T04:00:09;23.10;;;15.23;;
31596;SDS011;18201;50.978;7.034;2023-03-01T04:00:43;18.75;;;14.40;;
31596;SDS011;18201;50.978;7.034;2023-03-01T04:01:14;19.80;;;14.68;;
31596;SDS011;18201;50.978;7.034;2023-03-01T04:01:46;20.30;;;14.93;;
31596;SDS011;18201;50.978;7.034;2023-03-01T04:02:17;19.55;;;14.80;;
31596;SDS011;18201;50.978;7.034;2023-03-01T04:02:52;20.83;;;14.35;;
31596;SDS011;18201;50.978;7.034;2023-03-01T04:03:26;20.00;;;14.82;;
31596;SDS011;18201;50.978;7.034;2023-03-01T04:04:00;20.17;;;15.50;;
31596;SDS011;18201;50.978;7.034;2023-03-01T04:04:34;20.52;;;16.15;;
31596;SDS011;18201;50.978;7.034;2023-03-01T04:05:05;16.70;;;14.60;;
31596;SDS011;18201;50.978;7.034;2023-03-01T04:05:38;19.80;;;14.93;;
31596;SDS011;18201;50.978;7.034;2023-03-01T04:06:11;20.35;;;15.00;;
31596;SDS011;18201;50.978;7.034;2023-03-01T04:06:41;18.88;;;14.95;;
31596;SDS011;18201;50.978;7.034;2023-03-01T04:07:13;22.92;;;15.30;;
31596;SDS011;18201;50.978;7.034;2023-03-01T04:07:44;19.55;;;14.23;;
31596;SDS011;18201;50.978;7.034;2023-03-01T04:08:16;20.73;;;15.60;;
31596;SDS011;18201;50.978;7.034;2023-03-01T04:08:49;21.35;;;16.10;;
31596;SDS011;18201;50.978;7.034;2023-03-01T04:09:21;19.75;;;15.63;;
31596;SDS011;18201;50.978;7.034;2023-03-01T04:09:51;22.38;;;16.38;;
31596;SDS011;18201;50.978;7.034;2023-03-01T04:10:23;19.67;;;14.90;;
31596;SDS011;18201;50.978;7.034;2023-03-01T04:10:58;17.58;;;15.23;;
31596;SDS011;18201;50.978;7.034;2023-03-01T04:11:30;18.55;;;15.80;;
31596;SDS011;18201;50.978;7.034;2023-03-01T04:12:04;21.35;;;16.00;;
31596;SDS011;18201;50.978;7.034;2023-03-01T04:12:35;24.08;;;16.48;;
31596;SDS011;18201;50.978;7.034;2023-03-01T04:13:09;18.42;;;15.73;;
31596;SDS011;18201;50.978;7.034;2023-03-01T04:13:42;19.55;;;15.85;;
31596;SDS011;18201;50.978;7.034;2023-03-01T04:14:13;20.33;;;15.40;;
31596;SDS011;18201;50.978;7.034;2023-03-01T04:14:44;19.45;;;15.98;;
31596;SDS011;18201;50.978;7.034;2023-03-01T04:15:16;19.48;;;15.98;;
31596;SDS011;18201;50.978;7.034;2023-03-01T04:15:49;21.48;;;16.08;;
31596;SDS011;18201;50.978;7.034;2023-03-01T04:16:20;18.35;;;15.45;;
31596;SDS011;18201;50.978;7.034;2023-03-01T04:16:52;20.75;;;16.58;;
31596;SDS011;18201;50.978;7.034;2023-03-01T04:17:23;24.63;;;16.90;;
31596;SDS011;18201;50.978;7.034;2023-03-01T04:17:54;19.63;;;16.27;;
31596;SDS011;18201;50.978;7.034;2023-03-01T04:18:25;20.92;;;15.45;;
31596;SDS011;18201;50.978;7.034;2023-03-01T04:18:57;19.90;;;15.82;;
31596;SDS011;18201;50.978;7.034;2023-03-01T04:19:30;21.25;;;16.63;;
31596;SDS011;18201;50.978;7.034;2023-03-01T04:20:06;21.88;;;15.70;;
31596;SDS011;18201;50.978;7.034;2023-03-01T04:20:39;20.92;;;14.93;;
31596;SDS011;18201;50.978;7.034;2023-03-01T04:21:10;26.33;;;16.95;;
31596;SDS011;18201;50.978;7.034;2023-03-01T04:21:41;21.42;;;17.45;;
31596;SDS011;18201;50.978;7.034;2023-03-01T04:22:13;22.52;;;16.75;;
31596;SDS011;18201;50.978;7.034;2023-03-01T04:22:47;20.33;;;15.68;;
31596;SDS011;18201;50.978;7.034;2023-03-01T04:23:19;19.33;;;16.02;;
31596;SDS011;18201;50.978;7.034;2023-03-01T04:23:51;22.50;;;16.45;;
31596;SDS011;18201;50.978;7.034;2023-03-01T04:24:22;20.92;;;17.30;;
31596;SDS011;18201;50.978;7.034;2023-03-01T04:24:53;21.27;;;16.10;;
31596;SDS011;18201;50.978;7.034;2023-03-01T04:25:25;22.50;;;17.13;;
31596;SDS011;18201;50.978;7.034;2023-03-01T04:25:57;23.90;;;16.33;;
31596;SDS011;18201;50.978;7.034;2023-03-01T04:26:29;23.45;;;17.70;;
31596;SDS011;18201;50.978;7.034;2023-03-01T04:27:01;23.85;;;16.77;;
31596;SDS011;18201;50.978;7.034;2023-03-01T04:27:32;22.70;;;17.40;;
31596;SDS011;18201;50.978;7.034;2023-03-01T04:28:03;24.83;;;17.00;;
31596;SDS011;18201;50.978;7.034;2023-03-01T04:28:35;23.42;;;16.02;;
31596;SDS011;18201;50.978;7.034;2023-03-01T04:29:08;21.63;;;15.77;;
31596;SDS011;18201;50.978;7.034;2023-03-01T04:29:39;20.00;;;15.70;;
31596;SDS011;18201;50.978;7.034;2023-03-01T04:30:10;22.27;;;16.33;;
31596;SDS011;18201;50.978;7.034;2023-03-01T04:30:44;22.05;;;17.10;;
31596;SDS011;18201;50.978;7.034;2023-03-01T04:31:15;21.38;;;16.65;;